createdAt,value
2017-10-15T00:02:10.182Z,11.20
2017-10-15T00:04:37.042Z,10.67
2017-10-15T00:07:03.824Z,11.60
2017-10-15T00:09:30.643Z,11.00
2017-10-15T00:11:57.467Z,11.67
2017-10-15T00:14:24.216Z,9.57
2017-10-15T00:16:51.000Z,11.00
2017-10-15T00:19:17.826Z,13.30
2017-10-15T00:21:44.607Z,10.87
2017-10-15T00:24:11.382Z,11.90
2017-10-15T00:26:38.183Z,11.40
2017-10-15T00:29:04.967Z,12.00
2017-10-15T00:31:31.778Z,10.87
2017-10-15T00:33:58.618Z,11.60
2017-10-15T00:36:25.391Z,10.93
2017-10-15T00:38:52.168Z,12.90
2017-10-15T00:41:18.992Z,11.87
2017-10-15T00:43:45.775Z,13.60
2017-10-15T00:46:12.958Z,13.43
2017-10-15T00:48:39.764Z,12.20
2017-10-15T00:51:06.546Z,13.37
2017-10-15T00:53:33.322Z,12.93
2017-10-15T00:56:00.149Z,13.40
2017-10-15T00:58:27.649Z,13.27
2017-10-15T01:00:54.431Z,14.63
2017-10-15T01:03:21.240Z,12.37
2017-10-15T01:05:48.031Z,13.83
2017-10-15T01:08:14.795Z,17.43
2017-10-15T01:10:41.591Z,17.20
2017-10-15T01:13:08.398Z,13.47
2017-10-15T01:15:35.574Z,17.40
2017-10-15T01:18:02.435Z,15.50
2017-10-15T01:20:29.249Z,15.17
2017-10-15T01:22:56.071Z,15.40
2017-10-15T01:25:22.940Z,16.20
2017-10-15T01:27:49.742Z,16.57
2017-10-15T01:30:16.520Z,16.67
2017-10-15T01:32:43.344Z,16.50
2017-10-15T01:35:10.123Z,17.33
2017-10-15T01:40:10.239Z,17.17
2017-10-15T01:42:37.044Z,17.27
2017-10-15T01:45:03.843Z,17.23
2017-10-15T01:47:30.716Z,16.70
2017-10-15T01:49:58.176Z,17.30
2017-10-15T01:52:24.984Z,17.37
2017-10-15T01:54:51.818Z,16.70
2017-10-15T01:57:18.630Z,18.90
2017-10-15T01:59:45.404Z,17.20
2017-10-15T02:02:12.243Z,19.97
2017-10-15T02:04:39.015Z,17.50
2017-10-15T02:07:05.814Z,19.33
2017-10-15T02:09:33.121Z,15.90
2017-10-15T02:11:59.903Z,17.40
2017-10-15T02:14:26.703Z,16.83
2017-10-15T02:16:53.504Z,16.57
2017-10-15T02:19:20.328Z,17.63
2017-10-15T02:21:47.411Z,17.90
2017-10-15T02:24:14.460Z,19.87
2017-10-15T02:26:41.516Z,19.20
2017-10-15T02:29:08.287Z,18.90
2017-10-15T02:31:35.117Z,18.73
2017-10-15T02:34:01.898Z,19.90
2017-10-15T02:36:28.665Z,18.50
2017-10-15T02:38:56.098Z,20.60
2017-10-15T02:41:23.648Z,19.87
2017-10-15T02:43:50.432Z,18.90
2017-10-15T02:46:17.282Z,19.40
2017-10-15T02:48:44.096Z,20.57
2017-10-15T02:51:10.964Z,20.70
2017-10-15T02:53:37.872Z,22.53
2017-10-15T02:56:04.926Z,20.90
2017-10-15T02:58:31.724Z,19.47
2017-10-15T03:00:58.543Z,20.73
2017-10-15T03:03:25.359Z,21.13
2017-10-15T03:05:52.460Z,21.03
2017-10-15T03:08:19.276Z,20.80
2017-10-15T03:10:46.078Z,22.50
2017-10-15T03:13:12.836Z,19.80
2017-10-15T03:15:39.646Z,20.93
2017-10-15T03:18:06.403Z,21.40
2017-10-15T03:20:33.186Z,20.67
2017-10-15T03:22:59.999Z,19.17
2017-10-15T03:25:27.157Z,21.63
2017-10-15T03:27:53.916Z,21.57
2017-10-15T03:30:20.737Z,21.00
2017-10-15T03:32:47.857Z,20.97
2017-10-15T03:35:14.653Z,21.73
2017-10-15T03:37:41.456Z,22.57
2017-10-15T03:40:08.592Z,22.53
2017-10-15T03:42:36.139Z,23.03
2017-10-15T03:45:03.393Z,23.47
2017-10-15T03:47:30.156Z,22.90
2017-10-15T03:49:57.283Z,21.03
2017-10-15T03:52:24.107Z,20.67
2017-10-15T03:54:51.747Z,22.27
2017-10-15T03:57:19.339Z,19.87
2017-10-15T03:59:46.533Z,20.43
2017-10-15T04:02:14.282Z,18.60
2017-10-15T04:04:41.749Z,18.60
2017-10-15T04:07:08.613Z,21.87
2017-10-15T04:09:36.095Z,18.90
2017-10-15T04:12:02.898Z,19.07
2017-10-15T04:14:29.799Z,20.93
2017-10-15T04:16:56.961Z,20.80
2017-10-15T04:19:23.788Z,21.07
2017-10-15T04:21:50.853Z,21.40
2017-10-15T04:24:17.639Z,21.97
2017-10-15T04:26:44.481Z,23.70
2017-10-15T04:29:11.986Z,24.53
2017-10-15T04:31:38.766Z,22.00
2017-10-15T04:34:05.545Z,23.07
2017-10-15T04:36:32.570Z,23.67
2017-10-15T04:38:59.362Z,23.43
2017-10-15T04:41:26.127Z,25.20
2017-10-15T04:43:52.943Z,22.37
2017-10-15T04:46:19.718Z,23.63
2017-10-15T04:48:46.518Z,21.50
2017-10-15T04:51:13.668Z,20.67
2017-10-15T04:53:41.048Z,19.83
2017-10-15T04:56:07.822Z,22.57
2017-10-15T04:58:34.636Z,23.00
2017-10-15T05:01:01.395Z,22.77
2017-10-15T05:03:28.184Z,23.83
2017-10-15T05:05:55.063Z,22.57
2017-10-15T05:08:21.847Z,22.00
2017-10-15T05:10:49.360Z,22.20
2017-10-15T05:13:16.201Z,20.87
2017-10-15T05:15:42.965Z,23.50
2017-10-15T05:18:09.787Z,19.70
2017-10-15T05:20:37.093Z,22.87
2017-10-15T05:23:03.875Z,21.03
2017-10-15T05:25:30.707Z,21.83
2017-10-15T05:27:57.548Z,23.17
2017-10-15T05:30:24.350Z,22.10
2017-10-15T05:32:51.119Z,22.90
2017-10-15T05:35:18.010Z,23.07
2017-10-15T05:37:44.836Z,22.87
2017-10-15T05:40:11.604Z,20.20
2017-10-15T05:42:38.431Z,27.13
2017-10-15T05:45:05.215Z,23.70
2017-10-15T05:47:32.122Z,24.30
2017-10-15T05:49:59.032Z,22.97
2017-10-15T05:52:25.874Z,24.80
2017-10-15T05:54:52.622Z,23.67
2017-10-15T05:57:19.432Z,23.57
2017-10-15T05:59:46.375Z,24.40
2017-10-15T06:02:13.170Z,25.43
2017-10-15T06:04:39.980Z,23.43
2017-10-15T06:07:06.761Z,25.20
2017-10-15T06:09:33.639Z,23.27
2017-10-15T06:12:01.103Z,23.07
2017-10-15T06:14:27.876Z,23.83
2017-10-15T06:16:54.684Z,23.40
2017-10-15T06:19:21.504Z,24.63
2017-10-15T06:21:48.297Z,23.67
2017-10-15T06:24:15.098Z,23.40
2017-10-15T06:26:41.920Z,23.70
2017-10-15T06:29:08.735Z,22.40
2017-10-15T06:31:35.537Z,22.53
2017-10-15T06:34:03.062Z,24.13
2017-10-15T06:36:29.839Z,24.40
2017-10-15T06:38:56.614Z,24.73
2017-10-15T06:41:23.652Z,23.77
2017-10-15T06:43:50.431Z,23.83
2017-10-15T06:46:17.204Z,23.93
2017-10-15T06:48:44.011Z,24.80
2017-10-15T06:51:11.121Z,22.53
2017-10-15T06:53:37.899Z,22.20
2017-10-15T06:56:04.705Z,20.20
2017-10-15T06:58:31.539Z,21.40
2017-10-15T07:00:58.649Z,23.83
2017-10-15T07:03:25.474Z,21.13
2017-10-15T07:05:53.039Z,20.53
2017-10-15T07:08:19.821Z,22.37
2017-10-15T07:10:46.655Z,21.90
2017-10-15T07:13:13.442Z,21.50
2017-10-15T07:15:40.517Z,23.30
2017-10-15T07:18:07.747Z,22.43
2017-10-15T07:20:35.107Z,23.57
2017-10-15T07:23:02.047Z,21.03
2017-10-15T07:25:28.899Z,19.73
2017-10-15T07:27:55.702Z,21.07
2017-10-15T07:30:22.498Z,21.13
2017-10-15T07:32:49.302Z,23.30
2017-10-15T07:35:16.865Z,22.10
2017-10-15T07:37:43.679Z,23.60
2017-10-15T07:40:10.486Z,22.87
2017-10-15T07:42:37.250Z,22.70
2017-10-15T07:45:04.033Z,23.70
2017-10-15T07:47:31.259Z,22.27
2017-10-15T07:49:58.406Z,22.90
2017-10-15T07:52:25.210Z,21.03
2017-10-15T07:54:52.706Z,21.63
2017-10-15T07:57:19.550Z,22.57
2017-10-15T07:59:46.425Z,22.43
2017-10-15T08:02:13.262Z,20.93
2017-10-15T08:04:40.035Z,19.90
2017-10-15T08:07:06.814Z,20.13
2017-10-15T08:09:33.661Z,20.50
2017-10-15T08:12:01.151Z,19.67
2017-10-15T08:14:28.959Z,20.20
2017-10-15T08:16:55.803Z,19.13
2017-10-15T08:19:22.602Z,18.60
2017-10-15T08:21:49.414Z,19.70
2017-10-15T08:24:16.212Z,20.10
2017-10-15T08:26:43.060Z,21.30
2017-10-15T08:29:09.834Z,21.10
2017-10-15T08:31:36.653Z,20.33
2017-10-15T08:34:03.456Z,20.50
2017-10-15T08:36:30.235Z,20.20
2017-10-15T08:38:57.036Z,22.00
2017-10-15T08:41:23.822Z,22.50
2017-10-15T08:43:50.928Z,21.50
2017-10-15T08:46:17.746Z,22.10
2017-10-15T08:48:44.539Z,21.53
2017-10-15T08:51:11.330Z,21.70
2017-10-15T08:53:38.156Z,20.00
2017-10-15T08:56:05.003Z,20.80
2017-10-15T08:58:32.125Z,18.37
2017-10-15T09:00:59.657Z,17.80
2017-10-15T09:03:26.422Z,17.30
2017-10-15T09:05:53.192Z,18.70
2017-10-15T09:08:20.064Z,17.90
2017-10-15T09:10:47.626Z,20.23
2017-10-15T09:13:14.426Z,20.00
2017-10-15T09:15:41.252Z,20.80
2017-10-15T09:18:08.031Z,21.97
2017-10-15T09:20:34.811Z,18.70
2017-10-15T09:23:01.629Z,19.67
2017-10-15T09:25:28.718Z,20.57
2017-10-15T09:27:55.628Z,20.03
2017-10-15T09:30:22.434Z,19.87
2017-10-15T09:32:50.046Z,20.13
2017-10-15T09:35:16.850Z,19.17
2017-10-15T09:37:44.206Z,21.30
2017-10-15T09:40:11.204Z,21.30
2017-10-15T09:42:38.031Z,19.63
2017-10-15T09:45:04.828Z,22.43
2017-10-15T09:47:31.657Z,21.73
2017-10-15T09:49:58.478Z,24.40
2017-10-15T09:52:25.296Z,23.20
2017-10-15T09:54:52.071Z,23.73
2017-10-15T09:57:19.160Z,24.20
2017-10-15T09:59:45.987Z,24.20
2017-10-15T10:02:13.383Z,25.07
2017-10-15T10:04:40.156Z,26.37
2017-10-15T10:07:06.970Z,23.73
2017-10-15T10:09:33.758Z,27.83
2017-10-15T10:12:00.548Z,26.50
2017-10-15T10:14:27.375Z,24.80
2017-10-15T10:16:54.439Z,26.80
2017-10-15T10:19:21.219Z,25.87
2017-10-15T10:21:48.055Z,25.87
2017-10-15T10:24:14.815Z,24.60
2017-10-15T10:26:41.586Z,25.43
2017-10-15T10:29:08.454Z,23.80
2017-10-15T10:31:35.288Z,24.63
2017-10-15T10:34:02.090Z,24.50
2017-10-15T10:36:28.919Z,23.87
2017-10-15T10:38:56.038Z,24.40
2017-10-15T10:41:22.916Z,24.57
2017-10-15T10:43:49.748Z,24.43
2017-10-15T10:46:16.598Z,22.77
2017-10-15T10:48:43.391Z,25.80
2017-10-15T10:51:10.229Z,24.53
2017-10-15T10:53:37.008Z,25.13
2017-10-15T10:56:04.771Z,26.67
2017-10-15T10:58:31.619Z,24.17
2017-10-15T11:00:59.148Z,24.57
2017-10-15T11:03:25.937Z,25.20
2017-10-15T11:05:52.768Z,24.17
2017-10-15T11:08:19.567Z,25.53
2017-10-15T11:10:46.378Z,24.67
2017-10-15T11:13:13.211Z,26.90
2017-10-15T11:15:39.989Z,21.47
2017-10-15T11:18:07.095Z,26.60
2017-10-15T11:20:34.251Z,22.83
2017-10-15T11:23:01.050Z,24.20
2017-10-15T11:25:27.839Z,24.23
2017-10-15T11:27:54.678Z,23.70
2017-10-15T11:30:21.486Z,26.37
2017-10-15T11:32:48.292Z,23.63
2017-10-15T11:35:15.134Z,25.80
2017-10-15T11:37:42.526Z,24.10
2017-10-15T11:40:09.300Z,22.63
2017-10-15T11:42:36.113Z,23.43
2017-10-15T11:45:03.242Z,23.80
2017-10-15T11:47:30.056Z,23.20
2017-10-15T11:49:56.866Z,22.77
2017-10-15T11:52:23.666Z,23.80
2017-10-15T11:54:50.439Z,21.07
2017-10-15T11:57:17.251Z,23.47
2017-10-15T11:59:44.026Z,21.67
2017-10-15T12:02:10.818Z,21.27
2017-10-15T12:04:37.647Z,23.70
2017-10-15T12:07:04.392Z,23.37
2017-10-15T12:09:31.164Z,22.70
2017-10-15T12:11:58.708Z,20.17
2017-10-15T12:14:25.511Z,24.60
2017-10-15T12:16:52.323Z,22.40
2017-10-15T12:19:19.137Z,22.00
2017-10-15T12:21:45.914Z,21.27
2017-10-15T12:24:12.931Z,22.60
2017-10-15T12:26:39.770Z,20.70
2017-10-15T12:29:06.559Z,24.20
2017-10-15T12:31:33.378Z,21.47
2017-10-15T12:34:00.189Z,23.30
2017-10-15T12:36:26.964Z,23.37
2017-10-15T12:38:54.009Z,21.97
2017-10-15T12:41:20.876Z,22.60
2017-10-15T12:43:47.694Z,22.20
2017-10-15T12:46:14.964Z,24.77
2017-10-15T12:48:42.326Z,23.60
2017-10-15T12:51:09.756Z,20.23
2017-10-15T12:53:36.579Z,21.53
2017-10-15T12:56:04.002Z,21.30
2017-10-15T12:58:30.862Z,21.00
2017-10-15T13:00:57.662Z,22.43
2017-10-15T13:03:24.483Z,22.70
2017-10-15T13:05:51.261Z,22.50
2017-10-15T13:08:18.065Z,20.70
2017-10-15T13:10:45.076Z,21.37
2017-10-15T13:13:12.149Z,21.87
2017-10-15T13:15:39.815Z,19.97
2017-10-15T13:18:06.656Z,22.03
2017-10-15T13:20:33.918Z,21.60
2017-10-15T13:23:01.662Z,18.97
2017-10-15T13:25:28.526Z,19.70
2017-10-15T13:27:55.689Z,19.40
2017-10-15T13:30:22.534Z,19.67
2017-10-15T13:32:49.372Z,20.17
2017-10-15T13:35:16.147Z,19.33
2017-10-15T13:37:42.949Z,20.70
2017-10-15T13:40:09.803Z,19.40
2017-10-15T13:42:36.571Z,19.53
2017-10-15T13:45:03.339Z,21.70
2017-10-15T13:47:30.153Z,19.00
2017-10-15T13:49:56.983Z,21.23
2017-10-15T13:52:23.768Z,20.37
2017-10-15T13:54:50.600Z,19.97
2017-10-15T13:57:17.386Z,20.30
2017-10-15T13:59:44.198Z,19.93
2017-10-15T14:02:11.100Z,17.93
2017-10-15T14:04:38.000Z,19.90
2017-10-15T14:07:04.799Z,19.13
2017-10-15T14:09:31.602Z,19.33
2017-10-15T14:11:58.448Z,19.50
2017-10-15T14:14:26.022Z,18.27
2017-10-15T14:16:52.850Z,16.70
2017-10-15T14:19:19.646Z,18.10
2017-10-15T14:21:47.212Z,17.73
2017-10-15T14:24:14.047Z,16.63
2017-10-15T14:26:40.856Z,14.67
2017-10-15T14:29:07.622Z,17.10
2017-10-15T14:31:34.435Z,15.60
2017-10-15T14:34:01.252Z,14.50
2017-10-15T14:36:28.738Z,14.00
2017-10-15T14:38:55.582Z,13.43
2017-10-15T14:41:22.420Z,14.07
2017-10-15T14:43:49.235Z,15.60
2017-10-15T14:46:16.262Z,13.40
2017-10-15T14:48:43.094Z,15.17
2017-10-15T14:51:09.921Z,13.50
2017-10-15T14:53:36.744Z,14.27
2017-10-15T14:56:03.564Z,12.70
2017-10-15T14:58:30.630Z,13.07
2017-10-15T15:00:57.463Z,13.10
2017-10-15T15:03:24.594Z,13.03
2017-10-15T15:05:52.116Z,13.03
2017-10-15T15:08:18.993Z,12.60
2017-10-15T15:10:45.776Z,13.20
2017-10-15T15:13:12.601Z,13.20
2017-10-15T15:15:39.409Z,14.37
2017-10-15T15:18:06.194Z,12.73
2017-10-15T15:20:32.966Z,13.40
2017-10-15T15:22:59.793Z,14.90
2017-10-15T15:25:26.567Z,15.20
2017-10-15T15:27:53.742Z,14.47
2017-10-15T15:30:20.614Z,13.87
2017-10-15T15:32:47.377Z,14.43
2017-10-15T15:35:14.190Z,15.17
2017-10-15T15:37:41.042Z,15.27
2017-10-15T15:40:07.799Z,13.90
2017-10-15T15:42:35.322Z,14.90
2017-10-15T15:45:02.515Z,13.30
2017-10-15T15:47:29.342Z,13.73
2017-10-15T15:49:56.195Z,13.70
2017-10-15T15:52:23.100Z,12.87
2017-10-15T15:54:49.890Z,14.43
2017-10-15T15:57:16.729Z,14.00
2017-10-15T15:59:43.578Z,13.63
2017-10-15T16:02:10.981Z,13.67
2017-10-15T16:04:38.174Z,13.53
2017-10-15T16:07:05.019Z,13.87
2017-10-15T16:09:31.876Z,13.70
2017-10-15T16:11:59.630Z,13.80
2017-10-15T16:14:26.522Z,14.57
2017-10-15T16:16:53.296Z,12.57
2017-10-15T16:19:20.861Z,13.30
2017-10-15T16:21:48.849Z,14.20
2017-10-15T16:24:16.660Z,13.43
2017-10-15T16:26:43.532Z,13.23
2017-10-15T16:29:10.416Z,13.40
2017-10-15T16:31:37.239Z,12.30
2017-10-15T16:34:04.027Z,11.97
2017-10-15T16:36:30.811Z,12.10
2017-10-15T16:38:58.324Z,11.83
2017-10-15T16:41:25.107Z,12.27
2017-10-15T16:43:51.966Z,11.80
2017-10-15T16:46:18.792Z,12.23
2017-10-15T16:48:46.106Z,12.40
2017-10-15T16:51:13.274Z,11.13
2017-10-15T16:53:40.098Z,11.70
2017-10-15T16:56:07.476Z,10.60
2017-10-15T16:58:34.322Z,12.13
2017-10-15T17:01:01.147Z,10.83
2017-10-15T17:03:27.915Z,11.50
2017-10-15T17:05:54.835Z,11.23
2017-10-15T17:08:21.636Z,11.57
2017-10-15T17:10:48.407Z,11.00
2017-10-15T17:13:15.218Z,10.40
2017-10-15T17:15:42.014Z,9.93
2017-10-15T17:18:08.867Z,10.40
2017-10-15T17:20:35.711Z,9.70
2017-10-15T17:23:02.540Z,8.53
2017-10-15T17:25:29.300Z,9.93
2017-10-15T17:27:56.653Z,9.23
2017-10-15T17:30:23.718Z,9.30
2017-10-15T17:32:51.147Z,8.90
2017-10-15T17:35:18.400Z,9.77
2017-10-15T17:37:45.167Z,8.50
2017-10-15T17:40:13.055Z,8.00
2017-10-15T17:42:40.325Z,8.37
2017-10-15T17:45:07.085Z,7.63
2017-10-15T17:47:33.854Z,8.13
2017-10-15T17:50:00.664Z,7.33
2017-10-15T17:52:27.428Z,6.63
2017-10-15T17:54:54.508Z,6.67
2017-10-15T17:57:21.360Z,6.80
2017-10-15T17:59:48.571Z,8.40
2017-10-15T18:02:16.534Z,6.40
2017-10-15T18:04:43.340Z,6.30
2017-10-15T18:07:10.119Z,6.07
2017-10-15T18:09:37.246Z,6.67
2017-10-15T18:12:04.686Z,5.83
2017-10-15T18:14:31.443Z,6.13
2017-10-15T18:16:59.002Z,5.70
2017-10-15T18:19:27.510Z,6.33
2017-10-15T18:21:54.272Z,5.63
2017-10-15T18:24:21.202Z,6.90
2017-10-15T18:26:48.100Z,6.50
2017-10-15T18:29:14.976Z,5.87
2017-10-15T18:31:42.193Z,6.90
2017-10-15T18:34:09.079Z,7.13
2017-10-15T18:36:36.008Z,6.37
2017-10-15T18:39:02.848Z,6.70
2017-10-15T18:41:29.671Z,6.80
2017-10-15T18:43:56.594Z,6.00
2017-10-15T18:46:23.598Z,6.67
2017-10-15T18:48:50.490Z,6.83
2017-10-15T18:51:17.456Z,6.33
2017-10-15T18:53:44.422Z,7.43
2017-10-15T18:56:11.852Z,7.43
2017-10-15T18:58:38.804Z,6.70
2017-10-15T19:01:05.584Z,7.37
2017-10-15T19:03:32.473Z,7.67
2017-10-15T19:05:59.320Z,8.17
2017-10-15T19:08:26.143Z,6.73
2017-10-15T19:10:54.345Z,7.40
2017-10-15T19:13:21.688Z,8.27
2017-10-15T19:15:48.508Z,8.47
2017-10-15T19:18:16.228Z,7.07
2017-10-15T19:20:43.449Z,7.47
2017-10-15T19:25:41.734Z,6.80
2017-10-15T19:28:08.921Z,7.10
2017-10-15T19:30:35.711Z,7.07
2017-10-15T19:33:02.854Z,6.50
2017-10-15T19:35:29.639Z,7.10
2017-10-15T19:37:56.494Z,6.47
2017-10-15T19:40:23.337Z,6.50
2017-10-15T19:42:50.143Z,5.40
2017-10-15T19:45:16.904Z,6.40
2017-10-15T19:47:43.707Z,6.87
2017-10-15T19:50:10.687Z,6.80
2017-10-15T19:52:37.594Z,6.87
2017-10-15T19:55:04.379Z,7.17
2017-10-15T19:57:31.161Z,6.80
2017-10-15T19:59:58.287Z,7.23
2017-10-15T20:02:25.112Z,6.33
2017-10-15T20:04:52.166Z,6.50
2017-10-15T20:07:18.933Z,6.67
2017-10-15T20:09:46.269Z,6.10
2017-10-15T20:12:13.675Z,6.73
2017-10-15T20:14:40.432Z,6.37
2017-10-15T20:17:07.256Z,7.07
2017-10-15T20:19:34.033Z,7.37
2017-10-15T20:22:01.007Z,6.85
2017-10-15T20:24:27.805Z,6.53
2017-10-15T20:26:54.555Z,6.17
2017-10-15T20:29:21.661Z,6.43
2017-10-15T20:31:48.474Z,6.63
2017-10-15T20:34:16.006Z,7.00
2017-10-15T20:36:42.784Z,6.37
2017-10-15T20:39:09.572Z,6.67
2017-10-15T20:41:36.360Z,6.97
2017-10-15T20:44:03.207Z,7.40
2017-10-15T20:46:30.417Z,6.27
2017-10-15T20:48:57.222Z,7.60
2017-10-15T20:51:24.009Z,6.20
2017-10-15T20:53:50.814Z,6.37
2017-10-15T20:56:17.573Z,6.67
2017-10-15T20:58:44.343Z,6.47
2017-10-15T21:01:11.735Z,7.53
2017-10-15T21:03:39.131Z,7.50
2017-10-15T21:06:06.534Z,8.03
2017-10-15T21:08:33.382Z,7.37
2017-10-15T21:11:00.170Z,7.00
2017-10-15T21:13:26.927Z,7.40
2017-10-15T21:15:54.417Z,7.13
2017-10-15T21:18:21.332Z,7.70
2017-10-15T21:20:48.086Z,7.63
2017-10-15T21:23:14.911Z,6.30
2017-10-15T21:25:41.690Z,6.57
2017-10-15T21:28:08.494Z,8.47
2017-10-15T21:30:35.315Z,7.00
2017-10-15T21:33:02.843Z,7.03
2017-10-15T21:35:30.229Z,7.80
2017-10-15T21:37:57.684Z,7.90
2017-10-15T21:40:24.466Z,7.40
2017-10-15T21:42:51.315Z,7.03
2017-10-15T21:45:18.216Z,7.00
2017-10-15T21:47:45.062Z,7.90
2017-10-15T21:50:12.201Z,7.77
2017-10-15T21:52:39.117Z,8.00
2017-10-15T21:55:05.895Z,6.90
2017-10-15T21:57:33.150Z,7.80
2017-10-15T21:59:59.987Z,8.43
2017-10-15T22:02:27.033Z,8.07
2017-10-15T22:04:53.813Z,8.27
2017-10-15T22:07:20.918Z,8.60
2017-10-15T22:09:47.689Z,7.83
2017-10-15T22:12:14.511Z,7.70
2017-10-15T22:14:41.930Z,7.70
2017-10-15T22:17:08.975Z,7.40
2017-10-15T22:19:35.756Z,9.03
2017-10-15T22:22:08.188Z,9.23
2017-10-15T22:24:34.970Z,7.90
2017-10-15T22:27:02.130Z,7.30
2017-10-15T22:29:28.963Z,8.87
2017-10-15T22:31:56.543Z,8.17
2017-10-15T22:34:24.076Z,9.00
2017-10-15T22:36:50.900Z,9.70
2017-10-15T22:39:17.681Z,8.93
2017-10-15T22:41:44.808Z,7.80
2017-10-15T22:44:11.612Z,9.53
2017-10-15T22:46:38.694Z,8.50
2017-10-15T22:49:05.508Z,8.17
2017-10-15T22:51:32.644Z,8.83
2017-10-15T22:53:59.474Z,8.77
2017-10-15T22:56:26.277Z,9.10
2017-10-15T22:58:53.083Z,9.50
2017-10-15T23:01:19.872Z,8.90
2017-10-15T23:03:46.646Z,8.23
2017-10-15T23:06:14.375Z,9.47
2017-10-15T23:08:41.163Z,8.40
2017-10-15T23:11:07.912Z,9.10
2017-10-15T23:13:34.710Z,10.20
2017-10-15T23:16:02.319Z,9.40
2017-10-15T23:18:29.074Z,10.00
2017-10-15T23:20:55.897Z,9.83
2017-10-15T23:23:22.682Z,10.27
2017-10-15T23:25:49.510Z,10.60
2017-10-15T23:28:17.059Z,9.17
2017-10-15T23:30:43.815Z,9.20
2017-10-15T23:33:10.639Z,9.63
2017-10-15T23:35:37.429Z,10.30
2017-10-15T23:38:05.194Z,11.10
2017-10-15T23:40:31.956Z,8.93
2017-10-15T23:42:58.774Z,11.40
2017-10-15T23:45:25.560Z,10.40
2017-10-15T23:47:52.350Z,9.30
2017-10-15T23:50:19.164Z,9.60
2017-10-15T23:52:45.990Z,8.67
2017-10-15T23:55:13.119Z,10.10
2017-10-15T23:57:39.946Z,10.10
